sensor_id;sensor_type;location;lat;lon;timestamp;P1;durP1;ratioP1;P2;durP2;ratioP2
51174;SDS011;37240;50.104;20.010;2024-03-25T00:04:56;8.88;;;3.70;;
51174;SDS011;37240;50.104;20.010;2024-03-25T00:09:56;10.55;;;4.32;;
51174;SDS011;37240;50.104;20.010;2024-03-25T00:14:57;8.25;;;3.80;;
51174;SDS011;37240;50.104;20.010;2024-03-25T00:19:57;5.40;;;3.83;;
51174;SDS011;37240;50.104;20.010;2024-03-25T00:24:58;9.82;;;4.03;;
51174;SDS011;37240;50.104;20.010;2024-03-25T00:29:58;7.15;;;3.17;;
51174;SDS011;37240;50.104;20.010;2024-03-25T00:34:59;7.63;;;3.63;;
51174;SDS011;37240;50.104;20.010;2024-03-25T00:39:59;5.05;;;3.45;;
51174;SDS011;37240;50.104;20.010;2024-03-25T00:45:00;5.70;;;3.22;;
51174;SDS011;37240;50.104;20.010;2024-03-25T00:50:00;10.40;;;3.92;;
51174;SDS011;37240;50.104;20.010;2024-03-25T00:55:01;7.22;;;3.17;;
51174;SDS011;37240;50.104;20.010;2024-03-25T01:00:03;4.95;;;2.78;;
51174;SDS011;37240;50.104;20.010;2024-03-25T01:05:04;10.93;;;3.88;;
51174;SDS011;37240;50.104;20.010;2024-03-25T01:10:05;5.30;;;3.67;;
51174;SDS011;37240;50.104;20.010;2024-03-25T01:15:06;9.32;;;3.88;;
51174;SDS011;37240;50.104;20.010;2024-03-25T01:20:07;8.90;;;4.60;;
51174;SDS011;37240;50.104;20.010;2024-03-25T01:25:08;10.48;;;4.65;;
51174;SDS011;37240;50.104;20.010;2024-03-25T01:30:09;15.90;;;5.70;;
51174;SDS011;37240;50.104;20.010;2024-03-25T01:35:10;15.95;;;5.05;;
51174;SDS011;37240;50.104;20.010;2024-03-25T01:40:10;18.48;;;7.50;;
51174;SDS011;37240;50.104;20.010;2024-03-25T01:45:11;21.65;;;6.00;;
51174;SDS011;37240;50.104;20.010;2024-03-25T01:50:11;14.00;;;5.78;;
51174;SDS011;37240;50.104;20.010;2024-03-25T01:55:16;12.45;;;4.80;;
51174;SDS011;37240;50.104;20.010;2024-03-25T02:00:20;11.43;;;5.13;;
51174;SDS011;37240;50.104;20.010;2024-03-25T02:05:21;8.05;;;4.57;;
51174;SDS011;37240;50.104;20.010;2024-03-25T02:10:22;7.18;;;3.65;;
51174;SDS011;37240;50.104;20.010;2024-03-25T02:15:23;6.82;;;4.25;;
51174;SDS011;37240;50.104;20.010;2024-03-25T02:20:23;7.07;;;4.05;;
51174;SDS011;37240;50.104;20.010;2024-03-25T02:25:24;8.10;;;3.60;;
51174;SDS011;37240;50.104;20.010;2024-03-25T02:30:25;5.75;;;3.35;;
51174;SDS011;37240;50.104;20.010;2024-03-25T02:35:26;6.30;;;3.38;;
51174;SDS011;37240;50.104;20.010;2024-03-25T02:40:27;7.20;;;3.35;;
51174;SDS011;37240;50.104;20.010;2024-03-25T02:45:27;4.18;;;2.60;;
51174;SDS011;37240;50.104;20.010;2024-03-25T02:50:28;5.25;;;3.15;;
51174;SDS011;37240;50.104;20.010;2024-03-25T02:55:28;3.03;;;2.63;;
51174;SDS011;37240;50.104;20.010;2024-03-25T03:00:29;9.32;;;3.35;;
51174;SDS011;37240;50.104;20.010;2024-03-25T03:05:30;3.78;;;2.88;;
51174;SDS011;37240;50.104;20.010;2024-03-25T03:10:30;3.50;;;2.40;;
51174;SDS011;37240;50.104;20.010;2024-03-25T03:15:31;3.83;;;2.70;;
51174;SDS011;37240;50.104;20.010;2024-03-25T03:20:31;5.60;;;3.20;;
51174;SDS011;37240;50.104;20.010;2024-03-25T03:25:32;4.05;;;2.53;;
51174;SDS011;37240;50.104;20.010;2024-03-25T03:30:32;4.30;;;2.95;;
51174;SDS011;37240;50.104;20.010;2024-03-25T03:35:33;5.80;;;2.55;;
51174;SDS011;37240;50.104;20.010;2024-03-25T03:40:34;7.65;;;2.38;;
51174;SDS011;37240;50.104;20.010;2024-03-25T03:45:34;2.92;;;2.58;;
51174;SDS011;37240;50.104;20.010;2024-03-25T03:50:35;7.95;;;3.15;;
51174;SDS011;37240;50.104;20.010;2024-03-25T03:55:36;3.15;;;2.63;;
51174;SDS011;37240;50.104;20.010;2024-03-25T04:00:37;5.30;;;3.25;;
51174;SDS011;37240;50.104;20.010;2024-03-25T04:05:37;5.45;;;2.60;;
51174;SDS011;37240;50.104;20.010;2024-03-25T04:10:38;4.07;;;2.65;;
51174;SDS011;37240;50.104;20.010;2024-03-25T04:15:39;5.10;;;2.67;;
51174;SDS011;37240;50.104;20.010;2024-03-25T04:20:41;32.55;;;12.70;;
51174;SDS011;37240;50.104;20.010;2024-03-25T04:25:42;19.30;;;8.52;;
51174;SDS011;37240;50.104;20.010;2024-03-25T04:30:42;9.25;;;5.22;;
51174;SDS011;37240;50.104;20.010;2024-03-25T04:35:43;6.18;;;4.05;;
51174;SDS011;37240;50.104;20.010;2024-03-25T04:40:43;6.45;;;3.45;;
51174;SDS011;37240;50.104;20.010;2024-03-25T04:45:44;5.50;;;2.58;;
51174;SDS011;37240;50.104;20.010;2024-03-25T04:50:44;3.40;;;2.72;;
51174;SDS011;37240;50.104;20.010;2024-03-25T04:55:45;4.95;;;3.50;;
51174;SDS011;37240;50.104;20.010;2024-03-25T05:00:45;15.23;;;8.07;;
51174;SDS011;37240;50.104;20.010;2024-03-25T05:05:46;8.77;;;5.72;;
51174;SDS011;37240;50.104;20.010;2024-03-25T05:10:47;6.93;;;4.53;;
51174;SDS011;37240;50.104;20.010;2024-03-25T05:15:50;5.40;;;4.25;;
51174;SDS011;37240;50.104;20.010;2024-03-25T05:20:52;6.85;;;3.30;;
51174;SDS011;37240;50.104;20.010;2024-03-25T05:25:52;4.85;;;2.92;;
51174;SDS011;37240;50.104;20.010;2024-03-25T05:30:53;3.92;;;2.42;;
51174;SDS011;37240;50.104;20.010;2024-03-25T05:35:53;3.03;;;2.47;;
51174;SDS011;37240;50.104;20.010;2024-03-25T05:40:54;2.00;;;1.80;;
51174;SDS011;37240;50.104;20.010;2024-03-25T05:45:55;2.63;;;2.15;;
51174;SDS011;37240;50.104;20.010;2024-03-25T05:51:05;4.72;;;2.60;;
51174;SDS011;37240;50.104;20.010;2024-03-25T05:56:06;4.00;;;2.60;;
51174;SDS011;37240;50.104;20.010;2024-03-25T06:01:07;3.45;;;2.05;;
51174;SDS011;37240;50.104;20.010;2024-03-25T06:06:07;4.32;;;1.63;;
51174;SDS011;37240;50.104;20.010;2024-03-25T06:11:08;2.83;;;2.10;;
51174;SDS011;37240;50.104;20.010;2024-03-25T06:16:08;8.40;;;2.63;;
51174;SDS011;37240;50.104;20.010;2024-03-25T06:21:09;7.25;;;5.97;;
51174;SDS011;37240;50.104;20.010;2024-03-25T06:26:09;6.45;;;3.95;;
51174;SDS011;37240;50.104;20.010;2024-03-25T06:31:10;20.98;;;9.05;;
51174;SDS011;37240;50.104;20.010;2024-03-25T06:36:10;14.13;;;7.30;;
51174;SDS011;37240;50.104;20.010;2024-03-25T06:41:11;12.25;;;5.07;;
51174;SDS011;37240;50.104;20.010;2024-03-25T06:46:12;8.07;;;3.55;;
51174;SDS011;37240;50.104;20.010;2024-03-25T06:51:12;8.50;;;4.15;;
51174;SDS011;37240;50.104;20.010;2024-03-25T06:56:13;13.77;;;4.97;;
51174;SDS011;37240;50.104;20.010;2024-03-25T07:01:13;8.07;;;4.10;;
51174;SDS011;37240;50.104;20.010;2024-03-25T07:06:14;6.18;;;2.70;;
51174;SDS011;37240;50.104;20.010;2024-03-25T07:11:14;5.90;;;3.03;;
51174;SDS011;37240;50.104;20.010;2024-03-25T07:16:15;3.55;;;2.83;;
51174;SDS011;37240;50.104;20.010;2024-03-25T07:21:15;6.68;;;3.15;;
51174;SDS011;37240;50.104;20.010;2024-03-25T07:26:16;6.15;;;2.38;;
51174;SDS011;37240;50.104;20.010;2024-03-25T07:31:17;4.05;;;2.50;;
51174;SDS011;37240;50.104;20.010;2024-03-25T07:36:17;3.45;;;2.40;;
51174;SDS011;37240;50.104;20.010;2024-03-25T07:41:18;3.05;;;2.30;;
51174;SDS011;37240;50.104;20.010;2024-03-25T07:46:18;3.55;;;2.40;;
51174;SDS011;37240;50.104;20.010;2024-03-25T07:51:19;3.10;;;2.50;;
51174;SDS011;37240;50.104;20.010;2024-03-25T07:56:19;3.75;;;2.20;;
51174;SDS011;37240;50.104;20.010;2024-03-25T08:01:20;65.75;;;22.77;;
51174;SDS011;37240;50.104;20.010;2024-03-25T08:06:20;34.78;;;13.02;;
51174;SDS011;37240;50.104;20.010;2024-03-25T08:11:21;18.02;;;8.15;;
51174;SDS011;37240;50.104;20.010;2024-03-25T08:16:21;19.20;;;10.30;;
51174;SDS011;37240;50.104;20.010;2024-03-25T08:21:22;56.72;;;25.55;;
51174;SDS011;37240;50.104;20.010;2024-03-25T08:26:23;29.65;;;14.52;;
51174;SDS011;37240;50.104;20.010;2024-03-25T08:31:23;17.98;;;8.43;;
51174;SDS011;37240;50.104;20.010;2024-03-25T08:36:24;25.23;;;6.43;;
51174;SDS011;37240;50.104;20.010;2024-03-25T08:41:24;25.00;;;5.43;;
51174;SDS011;37240;50.104;20.010;2024-03-25T08:46:25;13.05;;;3.63;;
51174;SDS011;37240;50.104;20.010;2024-03-25T08:51:25;8.77;;;2.78;;
51174;SDS011;37240;50.104;20.010;2024-03-25T08:56:26;4.25;;;2.35;;
51174;SDS011;37240;50.104;20.010;2024-03-25T09:01:27;3.60;;;2.75;;
51174;SDS011;37240;50.104;20.010;2024-03-25T09:06:27;3.55;;;2.47;;
51174;SDS011;37240;50.104;20.010;2024-03-25T09:11:28;2.67;;;2.33;;
51174;SDS011;37240;50.104;20.010;2024-03-25T09:16:28;2.40;;;2.20;;
51174;SDS011;37240;50.104;20.010;2024-03-25T09:21:29;3.97;;;2.75;;
51174;SDS011;37240;50.104;20.010;2024-03-25T09:26:29;4.18;;;3.05;;
51174;SDS011;37240;50.104;20.010;2024-03-25T09:31:30;3.03;;;2.30;;
51174;SDS011;37240;50.104;20.010;2024-03-25T09:36:30;4.28;;;1.77;;
51174;SDS011;37240;50.104;20.010;2024-03-25T09:41:31;3.15;;;2.47;;
51174;SDS011;37240;50.104;20.010;2024-03-25T09:46:35;7.05;;;2.67;;
51174;SDS011;37240;50.104;20.010;2024-03-25T09:51:36;10.02;;;2.80;;
51174;SDS011;37240;50.104;20.010;2024-03-25T09:56:37;11.48;;;3.42;;
51174;SDS011;37240;50.104;20.010;2024-03-25T10:01:39;5.53;;;2.70;;
51174;SDS011;37240;50.104;20.010;2024-03-25T10:06:40;10.63;;;2.47;;
51174;SDS011;37240;50.104;20.010;2024-03-25T10:11:40;6.22;;;2.60;;
51174;SDS011;37240;50.104;20.010;2024-03-25T10:16:41;5.43;;;2.60;;
51174;SDS011;37240;50.104;20.010;2024-03-25T10:21:42;23.55;;;2.92;;
51174;SDS011;37240;50.104;20.010;2024-03-25T10:26:42;5.68;;;2.30;;
51174;SDS011;37240;50.104;20.010;2024-03-25T10:31:43;2.45;;;1.98;;
51174;SDS011;37240;50.104;20.010;2024-03-25T10:36:43;4.80;;;2.00;;
51174;SDS011;37240;50.104;20.010;2024-03-25T10:41:44;2.25;;;1.58;;
51174;SDS011;37240;50.104;20.010;2024-03-25T10:46:47;1.65;;;1.52;;
51174;SDS011;37240;50.104;20.010;2024-03-25T10:51:51;1.75;;;1.38;;
51174;SDS011;37240;50.104;20.010;2024-03-25T10:56:53;2.28;;;1.90;;
51174;SDS011;37240;50.104;20.010;2024-03-25T11:01:53;4.18;;;1.30;;
51174;SDS011;37240;50.104;20.010;2024-03-25T11:06:54;9.07;;;1.58;;
51174;SDS011;37240;50.104;20.010;2024-03-25T11:11:54;13.00;;;1.58;;
51174;SDS011;37240;50.104;20.010;2024-03-25T11:16:55;1.38;;;1.27;;
51174;SDS011;37240;50.104;20.010;2024-03-25T11:22:08;2.72;;;1.92;;
51174;SDS011;37240;50.104;20.010;2024-03-25T11:27:10;1.33;;;1.23;;
51174;SDS011;37240;50.104;20.010;2024-03-25T11:32:10;1.45;;;1.17;;
51174;SDS011;37240;50.104;20.010;2024-03-25T11:37:11;1.38;;;1.27;;
51174;SDS011;37240;50.104;20.010;2024-03-25T11:42:12;1.30;;;0.95;;
51174;SDS011;37240;50.104;20.010;2024-03-25T11:47:13;6.00;;;3.60;;
51174;SDS011;37240;50.104;20.010;2024-03-25T11:52:14;8.90;;;4.78;;
51174;SDS011;37240;50.104;20.010;2024-03-25T11:57:16;4.70;;;2.75;;
51174;SDS011;37240;50.104;20.010;2024-03-25T12:02:16;5.78;;;2.33;;
51174;SDS011;37240;50.104;20.010;2024-03-25T12:07:18;1.70;;;1.55;;
51174;SDS011;37240;50.104;20.010;2024-03-25T12:12:18;1.50;;;1.42;;
51174;SDS011;37240;50.104;20.010;2024-03-25T12:17:19;1.45;;;1.33;;
51174;SDS011;37240;50.104;20.010;2024-03-25T12:22:20;3.15;;;2.00;;
51174;SDS011;37240;50.104;20.010;2024-03-25T12:27:21;1.98;;;1.40;;
51174;SDS011;37240;50.104;20.010;2024-03-25T12:32:21;4.18;;;1.30;;
51174;SDS011;37240;50.104;20.010;2024-03-25T12:37:30;2.03;;;1.80;;
51174;SDS011;37240;50.104;20.010;2024-03-25T12:42:31;4.13;;;1.85;;
51174;SDS011;37240;50.104;20.010;2024-03-25T12:47:32;2.47;;;2.08;;
51174;SDS011;37240;50.104;20.010;2024-03-25T12:52:33;5.07;;;2.38;;
51174;SDS011;37240;50.104;20.010;2024-03-25T12:57:34;5.05;;;2.00;;
51174;SDS011;37240;50.104;20.010;2024-03-25T13:02:34;1.90;;;1.30;;
51174;SDS011;37240;50.104;20.010;2024-03-25T13:07:35;1.60;;;1.35;;
51174;SDS011;37240;50.104;20.010;2024-03-25T13:12:35;2.88;;;1.88;;
51174;SDS011;37240;50.104;20.010;2024-03-25T13:17:36;12.75;;;7.95;;
51174;SDS011;37240;50.104;20.010;2024-03-25T13:22:36;6.25;;;4.82;;
51174;SDS011;37240;50.104;20.010;2024-03-25T13:27:37;11.30;;;2.78;;
51174;SDS011;37240;50.104;20.010;2024-03-25T13:32:37;5.47;;;3.45;;
51174;SDS011;37240;50.104;20.010;2024-03-25T13:37:38;3.47;;;1.75;;
51174;SDS011;37240;50.104;20.010;2024-03-25T13:42:38;4.20;;;1.60;;
51174;SDS011;37240;50.104;20.010;2024-03-25T13:47:39;1.52;;;1.23;;
51174;SDS011;37240;50.104;20.010;2024-03-25T13:52:40;2.58;;;1.60;;
51174;SDS011;37240;50.104;20.010;2024-03-25T13:57:40;83.45;;;34.95;;
51174;SDS011;37240;50.104;20.010;2024-03-25T14:02:41;32.97;;;16.13;;
51174;SDS011;37240;50.104;20.010;2024-03-25T14:07:41;14.40;;;7.05;;
51174;SDS011;37240;50.104;20.010;2024-03-25T14:12:42;6.03;;;4.13;;
51174;SDS011;37240;50.104;20.010;2024-03-25T14:17:42;2.35;;;2.15;;
51174;SDS011;37240;50.104;20.010;2024-03-25T14:22:43;2.95;;;2.17;;
51174;SDS011;37240;50.104;20.010;2024-03-25T14:27:43;2.75;;;2.17;;
51174;SDS011;37240;50.104;20.010;2024-03-25T14:32:44;5.45;;;1.33;;
51174;SDS011;37240;50.104;20.010;2024-03-25T14:37:44;1.92;;;1.80;;
51174;SDS011;37240;50.104;20.010;2024-03-25T14:42:45;4.35;;;3.50;;
51174;SDS011;37240;50.104;20.010;2024-03-25T14:47:45;2.42;;;2.22;;
51174;SDS011;37240;50.104;20.010;2024-03-25T14:52:46;3.42;;;2.03;;
51174;SDS011;37240;50.104;20.010;2024-03-25T14:57:46;1.35;;;1.30;;
51174;SDS011;37240;50.104;20.010;2024-03-25T15:02:47;2.50;;;1.42;;
51174;SDS011;37240;50.104;20.010;2024-03-25T15:07:47;4.35;;;1.42;;
51174;SDS011;37240;50.104;20.010;2024-03-25T15:12:48;6.18;;;3.95;;
51174;SDS011;37240;50.104;20.010;2024-03-25T15:17:49;11.88;;;5.40;;
51174;SDS011;37240;50.104;20.010;2024-03-25T15:22:50;7.38;;;4.50;;
51174;SDS011;37240;50.104;20.010;2024-03-25T15:27:50;6.47;;;3.80;;
51174;SDS011;37240;50.104;20.010;2024-03-25T15:32:51;5.10;;;2.75;;
51174;SDS011;37240;50.104;20.010;2024-03-25T15:37:51;2.75;;;1.63;;
51174;SDS011;37240;50.104;20.010;2024-03-25T15:42:52;2.00;;;1.88;;
51174;SDS011;37240;50.104;20.010;2024-03-25T15:47:52;3.92;;;2.08;;
51174;SDS011;37240;50.104;20.010;2024-03-25T15:52:53;2.13;;;1.98;;
51174;SDS011;37240;50.104;20.010;2024-03-25T15:57:53;2.63;;;2.42;;
51174;SDS011;37240;50.104;20.010;2024-03-25T16:02:54;2.28;;;1.65;;
51174;SDS011;37240;50.104;20.010;2024-03-25T16:07:55;3.15;;;1.83;;
51174;SDS011;37240;50.104;20.010;2024-03-25T16:12:59;4.45;;;2.22;;
51174;SDS011;37240;50.104;20.010;2024-03-25T16:18:00;17.08;;;8.45;;
51174;SDS011;37240;50.104;20.010;2024-03-25T16:23:01;14.45;;;7.10;;
51174;SDS011;37240;50.104;20.010;2024-03-25T16:28:01;10.88;;;5.00;;
51174;SDS011;37240;50.104;20.010;2024-03-25T16:33:02;7.78;;;4.03;;
51174;SDS011;37240;50.104;20.010;2024-03-25T16:38:03;8.05;;;3.40;;
51174;SDS011;37240;50.104;20.010;2024-03-25T16:43:04;4.18;;;2.92;;
51174;SDS011;37240;50.104;20.010;2024-03-25T16:48:04;5.05;;;3.15;;
51174;SDS011;37240;50.104;20.010;2024-03-25T16:53:05;2.47;;;2.00;;
51174;SDS011;37240;50.104;20.010;2024-03-25T16:58:06;4.63;;;3.42;;
51174;SDS011;37240;50.104;20.010;2024-03-25T17:03:06;16.48;;;7.82;;
51174;SDS011;37240;50.104;20.010;2024-03-25T17:08:07;16.42;;;8.02;;
51174;SDS011;37240;50.104;20.010;2024-03-25T17:13:08;10.05;;;5.35;;
51174;SDS011;37240;50.104;20.010;2024-03-25T17:18:09;5.72;;;3.28;;
51174;SDS011;37240;50.104;20.010;2024-03-25T17:23:10;8.93;;;4.00;;
51174;SDS011;37240;50.104;20.010;2024-03-25T17:28:10;5.30;;;2.80;;
51174;SDS011;37240;50.104;20.010;2024-03-25T17:33:11;5.25;;;2.88;;
51174;SDS011;37240;50.104;20.010;2024-03-25T17:38:11;8.13;;;2.70;;
51174;SDS011;37240;50.104;20.010;2024-03-25T17:43:12;4.30;;;3.53;;
51174;SDS011;37240;50.104;20.010;2024-03-25T17:48:13;3.60;;;2.88;;
51174;SDS011;37240;50.104;20.010;2024-03-25T17:53:13;4.38;;;3.22;;
51174;SDS011;37240;50.104;20.010;2024-03-25T17:58:14;4.68;;;2.65;;
51174;SDS011;37240;50.104;20.010;2024-03-25T18:03:17;3.92;;;3.28;;
51174;SDS011;37240;50.104;20.010;2024-03-25T18:08:18;5.47;;;3.83;;
51174;SDS011;37240;50.104;20.010;2024-03-25T18:13:19;5.47;;;3.08;;
51174;SDS011;37240;50.104;20.010;2024-03-25T18:18:20;3.97;;;3.35;;
51174;SDS011;37240;50.104;20.010;2024-03-25T18:23:20;4.97;;;3.03;;
51174;SDS011;37240;50.104;20.010;2024-03-25T18:28:21;4.10;;;3.50;;
51174;SDS011;37240;50.104;20.010;2024-03-25T18:33:22;5.95;;;4.07;;
51174;SDS011;37240;50.104;20.010;2024-03-25T18:38:22;9.10;;;4.20;;
51174;SDS011;37240;50.104;20.010;2024-03-25T18:43:25;4.28;;;3.50;;
51174;SDS011;37240;50.104;20.010;2024-03-25T18:48:26;5.78;;;4.03;;
51174;SDS011;37240;50.104;20.010;2024-03-25T18:53:27;12.02;;;5.68;;
51174;SDS011;37240;50.104;20.010;2024-03-25T18:58:27;12.98;;;6.68;;
51174;SDS011;37240;50.104;20.010;2024-03-25T19:03:28;15.68;;;6.72;;
51174;SDS011;37240;50.104;20.010;2024-03-25T19:08:28;9.90;;;6.00;;
51174;SDS011;37240;50.104;20.010;2024-03-25T19:13:29;14.68;;;6.15;;
51174;SDS011;37240;50.104;20.010;2024-03-25T19:18:29;13.82;;;6.38;;
51174;SDS011;37240;50.104;20.010;2024-03-25T19:23:30;11.57;;;6.53;;
51174;SDS011;37240;50.104;20.010;2024-03-25T19:28:31;11.85;;;7.13;;
51174;SDS011;37240;50.104;20.010;2024-03-25T19:33:31;14.73;;;6.72;;
51174;SDS011;37240;50.104;20.010;2024-03-25T19:38:32;13.32;;;6.60;;
51174;SDS011;37240;50.104;20.010;2024-03-25T19:43:32;16.10;;;7.95;;
51174;SDS011;37240;50.104;20.010;2024-03-25T19:48:33;14.82;;;8.88;;
51174;SDS011;37240;50.104;20.010;2024-03-25T19:53:33;16.80;;;8.20;;
51174;SDS011;37240;50.104;20.010;2024-03-25T19:58:34;14.98;;;7.28;;
51174;SDS011;37240;50.104;20.010;2024-03-25T20:03:35;17.40;;;8.90;;
51174;SDS011;37240;50.104;20.010;2024-03-25T20:08:35;20.10;;;11.20;;
51174;SDS011;37240;50.104;20.010;2024-03-25T20:13:36;22.60;;;10.93;;
51174;SDS011;37240;50.104;20.010;2024-03-25T20:18:36;22.83;;;12.25;;
51174;SDS011;37240;50.104;20.010;2024-03-25T20:23:37;18.38;;;10.07;;
51174;SDS011;37240;50.104;20.010;2024-03-25T20:28:38;28.90;;;14.30;;
51174;SDS011;37240;50.104;20.010;2024-03-25T20:33:38;30.92;;;13.60;;
51174;SDS011;37240;50.104;20.010;2024-03-25T20:38:39;24.17;;;12.63;;
51174;SDS011;37240;50.104;20.010;2024-03-25T20:43:39;24.17;;;11.65;;
51174;SDS011;37240;50.104;20.010;2024-03-25T20:48:40;21.02;;;11.27;;
51174;SDS011;37240;50.104;20.010;2024-03-25T20:53:40;24.85;;;12.70;;
51174;SDS011;37240;50.104;20.010;2024-03-25T20:58:41;23.88;;;12.07;;
51174;SDS011;37240;50.104;20.010;2024-03-25T21:03:41;23.60;;;13.05;;
51174;SDS011;37240;50.104;20.010;2024-03-25T21:08:42;33.30;;;15.60;;
51174;SDS011;37240;50.104;20.010;2024-03-25T21:13:42;36.85;;;16.15;;
51174;SDS011;37240;50.104;20.010;2024-03-25T21:18:43;32.70;;;15.75;;
51174;SDS011;37240;50.104;20.010;2024-03-25T21:23:47;39.70;;;16.45;;
51174;SDS011;37240;50.104;20.010;2024-03-25T21:28:47;33.65;;;15.68;;
51174;SDS011;37240;50.104;20.010;2024-03-25T21:33:48;35.30;;;16.90;;
51174;SDS011;37240;50.104;20.010;2024-03-25T21:38:48;38.20;;;15.55;;
51174;SDS011;37240;50.104;20.010;2024-03-25T21:43:49;41.35;;;16.40;;
51174;SDS011;37240;50.104;20.010;2024-03-25T21:48:49;45.97;;;17.42;;
51174;SDS011;37240;50.104;20.010;2024-03-25T21:53:50;38.90;;;18.38;;
51174;SDS011;37240;50.104;20.010;2024-03-25T21:58:51;34.92;;;17.40;;
51174;SDS011;37240;50.104;20.010;2024-03-25T22:03:51;40.47;;;18.33;;
51174;SDS011;37240;50.104;20.010;2024-03-25T22:08:52;39.03;;;17.80;;
51174;SDS011;37240;50.104;20.010;2024-03-25T22:13:52;52.20;;;19.85;;
51174;SDS011;37240;50.104;20.010;2024-03-25T22:18:53;50.70;;;17.73;;
51174;SDS011;37240;50.104;20.010;2024-03-25T22:23:53;50.42;;;19.65;;
51174;SDS011;37240;50.104;20.010;2024-03-25T22:28:54;44.20;;;18.98;;
51174;SDS011;37240;50.104;20.010;2024-03-25T22:33:54;44.97;;;19.52;;
51174;SDS011;37240;50.104;20.010;2024-03-25T22:38:55;41.17;;;18.70;;
51174;SDS011;37240;50.104;20.010;2024-03-25T22:43:55;42.63;;;18.73;;
51174;SDS011;37240;50.104;20.010;2024-03-25T22:48:56;51.45;;;20.27;;
51174;SDS011;37240;50.104;20.010;2024-03-25T22:53:57;52.88;;;20.58;;
51174;SDS011;37240;50.104;20.010;2024-03-25T22:58:57;46.78;;;18.63;;
51174;SDS011;37240;50.104;20.010;2024-03-25T23:03:58;44.08;;;18.10;;
51174;SDS011;37240;50.104;20.010;2024-03-25T23:08:58;41.53;;;18.25;;
51174;SDS011;37240;50.104;20.010;2024-03-25T23:13:59;44.72;;;20.48;;
51174;SDS011;37240;50.104;20.010;2024-03-25T23:19:05;44.30;;;19.10;;
51174;SDS011;37240;50.104;20.010;2024-03-25T23:29:06;48.15;;;20.08;;
51174;SDS011;37240;50.104;20.010;2024-03-25T23:34:07;48.50;;;20.52;;
51174;SDS011;37240;50.104;20.010;2024-03-25T23:39:07;46.42;;;20.80;;
51174;SDS011;37240;50.104;20.010;2024-03-25T23:44:11;48.28;;;20.15;;
51174;SDS011;37240;50.104;20.010;2024-03-25T23:49:12;47.42;;;21.13;;
51174;SDS011;37240;50.104;20.010;2024-03-25T23:54:12;55.17;;;22.02;;
51174;SDS011;37240;50.104;20.010;2024-03-25T23:59:13;50.65;;;22.33;;
